sensor_id;sensor_type;location;lat;lon;timestamp;temperature;humidity
63202;DHT22;49296;48.188;11.566;2023-03-01T00:00:01;3.14;65.43
63202;DHT22;49296;48.188;11.566;2023-03-01T00:02:29;3.08;65.39
63202;DHT22;49296;48.188;11.566;2023-03-01T00:04:57;3.01;65.98
63202;DHT22;49296;48.188;11.566;2023-03-01T00:07:23;3.15;65.54
63202;DHT22;49296;48.188;11.566;2023-03-01T00:09:50;3.21;65.30
63202;DHT22;49296;48.188;11.566;2023-03-01T00:12:17;3.22;65.31
63202;DHT22;49296;48.188;11.566;2023-03-01T00:14:43;3.00;65.53
63202;DHT22;49296;48.188;11.566;2023-03-01T00:17:10;3.01;65.74
63202;DHT22;49296;48.188;11.566;2023-03-01T00:19:37;3.19;65.10
63202;DHT22;49296;48.188;11.566;2023-03-01T00:22:05;3.27;64.96
63202;DHT22;49296;48.188;11.566;2023-03-01T00:24:32;3.34;64.57
63202;DHT22;49296;48.188;11.566;2023-03-01T00:26:59;3.34;64.80
63202;DHT22;49296;48.188;11.566;2023-03-01T00:29:25;3.25;64.92
63202;DHT22;49296;48.188;11.566;2023-03-01T00:31:52;3.29;64.63
63202;DHT22;49296;48.188;11.566;2023-03-01T00:34:19;3.22;64.77
63202;DHT22;49296;48.188;11.566;2023-03-01T00:36:45;3.04;65.36
63202;DHT22;49296;48.188;11.566;2023-03-01T00:39:14;2.99;65.57
63202;DHT22;49296;48.188;11.566;2023-03-01T00:41:42;3.11;65.34
63202;DHT22;49296;48.188;11.566;2023-03-01T00:44:10;3.25;64.90
63202;DHT22;49296;48.188;11.566;2023-03-01T00:46:37;3.11;65.12
63202;DHT22;49296;48.188;11.566;2023-03-01T00:49:03;3.00;65.55
63202;DHT22;49296;48.188;11.566;2023-03-01T00:51:30;3.00;65.64
63202;DHT22;49296;48.188;11.566;2023-03-01T00:54:00;2.99;65.20
63202;DHT22;49296;48.188;11.566;2023-03-01T00:56:29;2.96;65.46
63202;DHT22;49296;48.188;11.566;2023-03-01T00:58:56;3.00;65.35
63202;DHT22;49296;48.188;11.566;2023-03-01T01:01:24;3.00;65.24
63202;DHT22;49296;48.188;11.566;2023-03-01T01:03:54;3.08;65.18
63202;DHT22;49296;48.188;11.566;2023-03-01T01:06:23;2.97;65.28
63202;DHT22;49296;48.188;11.566;2023-03-01T01:08:50;2.96;65.33
63202;DHT22;49296;48.188;11.566;2023-03-01T01:11:18;3.11;64.94
63202;DHT22;49296;48.188;11.566;2023-03-01T01:13:47;3.18;64.66
63202;DHT22;49296;48.188;11.566;2023-03-01T01:16:15;3.18;64.67
63202;DHT22;49296;48.188;11.566;2023-03-01T01:18:42;3.19;64.79
63202;DHT22;49296;48.188;11.566;2023-03-01T01:21:11;3.08;64.84
63202;DHT22;49296;48.188;11.566;2023-03-01T01:23:38;3.12;64.83
63202;DHT22;49296;48.188;11.566;2023-03-01T01:26:06;3.17;64.64
63202;DHT22;49296;48.188;11.566;2023-03-01T01:28:33;3.08;64.88
63202;DHT22;49296;48.188;11.566;2023-03-01T01:31:01;3.15;64.89
63202;DHT22;49296;48.188;11.566;2023-03-01T01:33:28;3.05;65.19
63202;DHT22;49296;48.188;11.566;2023-03-01T01:35:55;3.21;64.82
63202;DHT22;49296;48.188;11.566;2023-03-01T01:38:21;3.03;65.13
63202;DHT22;49296;48.188;11.566;2023-03-01T01:40:49;3.00;65.35
63202;DHT22;49296;48.188;11.566;2023-03-01T01:43:22;3.03;65.06
63202;DHT22;49296;48.188;11.566;2023-03-01T01:45:50;2.90;65.61
63202;DHT22;49296;48.188;11.566;2023-03-01T01:48:20;3.08;65.03
63202;DHT22;49296;48.188;11.566;2023-03-01T01:50:53;3.15;64.83
63202;DHT22;49296;48.188;11.566;2023-03-01T01:53:21;3.10;64.83
63202;DHT22;49296;48.188;11.566;2023-03-01T01:55:51;3.22;64.61
63202;DHT22;49296;48.188;11.566;2023-03-01T01:58:19;3.27;64.37
63202;DHT22;49296;48.188;11.566;2023-03-01T02:00:48;3.15;64.83
63202;DHT22;49296;48.188;11.566;2023-03-01T02:03:20;3.08;65.03
63202;DHT22;49296;48.188;11.566;2023-03-01T02:05:53;3.15;64.72
63202;DHT22;49296;48.188;11.566;2023-03-01T02:08:25;3.17;64.60
63202;DHT22;49296;48.188;11.566;2023-03-01T02:10:53;2.99;64.83
63202;DHT22;49296;48.188;11.566;2023-03-01T02:13:21;2.87;65.42
63202;DHT22;49296;48.188;11.566;2023-03-01T02:15:48;3.03;65.14
63202;DHT22;49296;48.188;11.566;2023-03-01T02:18:18;2.87;64.87
63202;DHT22;49296;48.188;11.566;2023-03-01T02:20:58;2.83;65.18
63202;DHT22;49296;48.188;11.566;2023-03-01T02:23:29;2.80;65.12
63202;DHT22;49296;48.188;11.566;2023-03-01T02:26:01;2.82;65.55
63202;DHT22;49296;48.188;11.566;2023-03-01T02:28:32;2.90;65.77
63202;DHT22;49296;48.188;11.566;2023-03-01T02:31:00;3.04;64.96
63202;DHT22;49296;48.188;11.566;2023-03-01T02:33:45;2.97;64.81
63202;DHT22;49296;48.188;11.566;2023-03-01T02:36:15;2.77;65.58
63202;DHT22;49296;48.188;11.566;2023-03-01T02:38:44;2.87;65.35
63202;DHT22;49296;48.188;11.566;2023-03-01T02:41:11;2.94;65.23
63202;DHT22;49296;48.188;11.566;2023-03-01T02:43:41;2.96;64.85
63202;DHT22;49296;48.188;11.566;2023-03-01T02:46:14;2.96;65.08
63202;DHT22;49296;48.188;11.566;2023-03-01T02:48:42;2.96;64.94
63202;DHT22;49296;48.188;11.566;2023-03-01T02:51:21;2.99;64.52
63202;DHT22;49296;48.188;11.566;2023-03-01T02:53:56;2.80;64.98
63202;DHT22;49296;48.188;11.566;2023-03-01T02:56:25;2.90;64.89
63202;DHT22;49296;48.188;11.566;2023-03-01T02:58:53;2.80;65.15
63202;DHT22;49296;48.188;11.566;2023-03-01T03:01:26;2.91;64.49
63202;DHT22;49296;48.188;11.566;2023-03-01T03:04:02;2.75;65.01
63202;DHT22;49296;48.188;11.566;2023-03-01T03:06:29;2.66;65.00
63202;DHT22;49296;48.188;11.566;2023-03-01T03:08:56;2.80;64.96
63202;DHT22;49296;48.188;11.566;2023-03-01T03:11:23;2.93;64.26
63202;DHT22;49296;48.188;11.566;2023-03-01T03:13:50;2.99;63.74
63202;DHT22;49296;48.188;11.566;2023-03-01T03:16:18;2.83;64.29
63202;DHT22;49296;48.188;11.566;2023-03-01T03:18:45;2.63;64.23
63202;DHT22;49296;48.188;11.566;2023-03-01T03:21:12;2.63;64.62
63202;DHT22;49296;48.188;11.566;2023-03-01T03:23:39;2.59;64.66
63202;DHT22;49296;48.188;11.566;2023-03-01T03:26:06;2.63;64.40
63202;DHT22;49296;48.188;11.566;2023-03-01T03:28:34;2.63;64.28
63202;DHT22;49296;48.188;11.566;2023-03-01T03:31:05;2.59;64.32
63202;DHT22;49296;48.188;11.566;2023-03-01T03:33:34;2.59;64.71
63202;DHT22;49296;48.188;11.566;2023-03-01T03:36:00;2.69;64.40
63202;DHT22;49296;48.188;11.566;2023-03-01T03:38:27;2.77;63.97
63202;DHT22;49296;48.188;11.566;2023-03-01T03:41:00;2.60;64.09
63202;DHT22;49296;48.188;11.566;2023-03-01T03:43:30;2.52;64.68
63202;DHT22;49296;48.188;11.566;2023-03-01T03:45:57;2.41;65.04
63202;DHT22;49296;48.188;11.566;2023-03-01T03:48:24;2.14;65.24
63202;DHT22;49296;48.188;11.566;2023-03-01T03:50:54;2.03;65.71
63202;DHT22;49296;48.188;11.566;2023-03-01T03:53:22;2.11;65.80
63202;DHT22;49296;48.188;11.566;2023-03-01T03:55:49;2.24;65.44
63202;DHT22;49296;48.188;11.566;2023-03-01T03:58:18;2.38;64.93
63202;DHT22;49296;48.188;11.566;2023-03-01T04:00:46;2.49;64.59
63202;DHT22;49296;48.188;11.566;2023-03-01T04:03:14;2.58;64.52
63202;DHT22;49296;48.188;11.566;2023-03-01T04:05:42;2.52;64.88
63202;DHT22;49296;48.188;11.566;2023-03-01T04:08:10;2.59;64.93
63202;DHT22;49296;48.188;11.566;2023-03-01T04:10:38;2.44;64.95
63202;DHT22;49296;48.188;11.566;2023-03-01T04:13:06;2.58;64.59
63202;DHT22;49296;48.188;11.566;2023-03-01T04:15:36;2.60;64.57
63202;DHT22;49296;48.188;11.566;2023-03-01T04:18:04;2.45;64.95
63202;DHT22;49296;48.188;11.566;2023-03-01T04:20:32;2.41;65.07
63202;DHT22;49296;48.188;11.566;2023-03-01T04:23:01;2.60;64.56
63202;DHT22;49296;48.188;11.566;2023-03-01T04:25:37;2.52;64.39
63202;DHT22;49296;48.188;11.566;2023-03-01T04:28:04;2.45;64.84
63202;DHT22;49296;48.188;11.566;2023-03-01T04:30:31;2.42;64.68
63202;DHT22;49296;48.188;11.566;2023-03-01T04:33:01;2.24;65.43
63202;DHT22;49296;48.188;11.566;2023-03-01T04:35:28;2.17;65.53
63202;DHT22;49296;48.188;11.566;2023-03-01T04:37:55;2.25;65.45
63202;DHT22;49296;48.188;11.566;2023-03-01T04:40:22;2.20;65.18
63202;DHT22;49296;48.188;11.566;2023-03-01T04:42:50;2.10;65.33
63202;DHT22;49296;48.188;11.566;2023-03-01T04:45:17;2.00;65.83
63202;DHT22;49296;48.188;11.566;2023-03-01T04:47:45;1.96;65.56
63202;DHT22;49296;48.188;11.566;2023-03-01T04:50:16;2.06;65.69
63202;DHT22;49296;48.188;11.566;2023-03-01T04:52:46;2.32;64.96
63202;DHT22;49296;48.188;11.566;2023-03-01T04:55:13;2.11;65.49
63202;DHT22;49296;48.188;11.566;2023-03-01T04:57:40;1.94;65.26
63202;DHT22;49296;48.188;11.566;2023-03-01T05:00:13;2.15;65.30
63202;DHT22;49296;48.188;11.566;2023-03-01T05:02:55;2.18;65.07
63202;DHT22;49296;48.188;11.566;2023-03-01T05:05:25;2.20;64.98
63202;DHT22;49296;48.188;11.566;2023-03-01T05:07:54;2.17;65.06
63202;DHT22;49296;48.188;11.566;2023-03-01T05:10:20;2.21;64.74
63202;DHT22;49296;48.188;11.566;2023-03-01T05:12:47;2.18;64.98
63202;DHT22;49296;48.188;11.566;2023-03-01T05:15:15;2.11;65.23
63202;DHT22;49296;48.188;11.566;2023-03-01T05:17:42;2.06;64.79
63202;DHT22;49296;48.188;11.566;2023-03-01T05:20:10;2.09;65.17
63202;DHT22;49296;48.188;11.566;2023-03-01T05:22:36;2.10;64.79
63202;DHT22;49296;48.188;11.566;2023-03-01T05:25:04;1.90;65.76
63202;DHT22;49296;48.188;11.566;2023-03-01T05:27:31;1.87;65.50
63202;DHT22;49296;48.188;11.566;2023-03-01T05:29:57;2.06;65.61
63202;DHT22;49296;48.188;11.566;2023-03-01T05:32:25;2.13;65.09
63202;DHT22;49296;48.188;11.566;2023-03-01T05:34:52;2.09;65.30
63202;DHT22;49296;48.188;11.566;2023-03-01T05:37:20;1.99;65.26
63202;DHT22;49296;48.188;11.566;2023-03-01T05:39:47;2.13;65.10
63202;DHT22;49296;48.188;11.566;2023-03-01T05:42:15;2.00;65.34
63202;DHT22;49296;48.188;11.566;2023-03-01T05:44:42;1.93;65.22
63202;DHT22;49296;48.188;11.566;2023-03-01T05:47:08;1.69;65.45
63202;DHT22;49296;48.188;11.566;2023-03-01T05:49:36;1.65;65.86
63202;DHT22;49296;48.188;11.566;2023-03-01T05:52:03;1.58;66.26
63202;DHT22;49296;48.188;11.566;2023-03-01T05:54:30;1.76;65.84
63202;DHT22;49296;48.188;11.566;2023-03-01T05:56:57;1.54;65.85
63202;DHT22;49296;48.188;11.566;2023-03-01T05:59:23;1.48;66.21
63202;DHT22;49296;48.188;11.566;2023-03-01T06:01:50;1.62;66.00
63202;DHT22;49296;48.188;11.566;2023-03-01T06:04:17;1.49;65.94
63202;DHT22;49296;48.188;11.566;2023-03-01T06:06:45;1.68;65.82
63202;DHT22;49296;48.188;11.566;2023-03-01T06:09:11;1.85;65.27
63202;DHT22;49296;48.188;11.566;2023-03-01T06:11:38;1.82;65.32
63202;DHT22;49296;48.188;11.566;2023-03-01T06:14:06;1.89;65.36
63202;DHT22;49296;48.188;11.566;2023-03-01T06:16:33;1.52;66.01
63202;DHT22;49296;48.188;11.566;2023-03-01T06:18:59;1.47;66.04
63202;DHT22;49296;48.188;11.566;2023-03-01T06:21:26;1.60;66.13
63202;DHT22;49296;48.188;11.566;2023-03-01T06:23:54;1.42;66.30
63202;DHT22;49296;48.188;11.566;2023-03-01T06:26:21;1.22;66.69
63202;DHT22;49296;48.188;11.566;2023-03-01T06:28:47;1.35;66.66
63202;DHT22;49296;48.188;11.566;2023-03-01T06:31:14;1.37;66.41
63202;DHT22;49296;48.188;11.566;2023-03-01T06:33:41;1.48;66.62
63202;DHT22;49296;48.188;11.566;2023-03-01T06:36:10;1.56;66.18
63202;DHT22;49296;48.188;11.566;2023-03-01T06:38:36;1.63;66.22
63202;DHT22;49296;48.188;11.566;2023-03-01T06:41:04;1.77;65.60
63202;DHT22;49296;48.188;11.566;2023-03-01T06:43:32;1.69;65.93
63202;DHT22;49296;48.188;11.566;2023-03-01T06:45:58;1.42;66.42
63202;DHT22;49296;48.188;11.566;2023-03-01T06:48:25;1.63;66.11
63202;DHT22;49296;48.188;11.566;2023-03-01T06:50:52;1.44;66.36
63202;DHT22;49296;48.188;11.566;2023-03-01T06:53:19;1.44;66.49
63202;DHT22;49296;48.188;11.566;2023-03-01T06:55:45;1.38;66.31
63202;DHT22;49296;48.188;11.566;2023-03-01T06:58:13;1.63;65.87
63202;DHT22;49296;48.188;11.566;2023-03-01T07:00:40;1.60;65.91
63202;DHT22;49296;48.188;11.566;2023-03-01T07:03:08;1.62;66.20
63202;DHT22;49296;48.188;11.566;2023-03-01T07:05:34;1.73;66.19
63202;DHT22;49296;48.188;11.566;2023-03-01T07:08:01;1.85;65.69
63202;DHT22;49296;48.188;11.566;2023-03-01T07:10:28;2.04;65.19
63202;DHT22;49296;48.188;11.566;2023-03-01T07:12:55;2.09;65.03
63202;DHT22;49296;48.188;11.566;2023-03-01T07:15:24;1.96;65.50
63202;DHT22;49296;48.188;11.566;2023-03-01T07:17:51;1.94;65.47
63202;DHT22;49296;48.188;11.566;2023-03-01T07:20:19;2.04;65.22
63202;DHT22;49296;48.188;11.566;2023-03-01T07:22:49;1.83;65.73
63202;DHT22;49296;48.188;11.566;2023-03-01T07:25:16;2.00;65.43
63202;DHT22;49296;48.188;11.566;2023-03-01T07:27:43;2.09;65.24
63202;DHT22;49296;48.188;11.566;2023-03-01T07:30:10;1.94;65.58
63202;DHT22;49296;48.188;11.566;2023-03-01T07:32:38;1.85;66.28
63202;DHT22;49296;48.188;11.566;2023-03-01T07:35:06;2.07;65.76
63202;DHT22;49296;48.188;11.566;2023-03-01T07:37:33;2.15;65.26
63202;DHT22;49296;48.188;11.566;2023-03-01T07:39:59;2.06;65.20
63202;DHT22;49296;48.188;11.566;2023-03-01T07:42:26;2.06;65.04
63202;DHT22;49296;48.188;11.566;2023-03-01T07:44:52;1.99;65.07
63202;DHT22;49296;48.188;11.566;2023-03-01T07:47:19;1.86;65.84
63202;DHT22;49296;48.188;11.566;2023-03-01T07:49:47;1.77;65.57
63202;DHT22;49296;48.188;11.566;2023-03-01T07:52:14;1.87;65.25
63202;DHT22;49296;48.188;11.566;2023-03-01T07:54:42;2.04;65.02
63202;DHT22;49296;48.188;11.566;2023-03-01T07:57:10;1.92;65.08
63202;DHT22;49296;48.188;11.566;2023-03-01T07:59:36;1.89;65.32
63202;DHT22;49296;48.188;11.566;2023-03-01T08:02:03;1.82;65.28
63202;DHT22;49296;48.188;11.566;2023-03-01T08:04:30;1.66;66.03
63202;DHT22;49296;48.188;11.566;2023-03-01T08:06:58;1.52;66.08
63202;DHT22;49296;48.188;11.566;2023-03-01T08:09:25;1.62;66.44
63202;DHT22;49296;48.188;11.566;2023-03-01T08:11:51;1.76;66.12
63202;DHT22;49296;48.188;11.566;2023-03-01T08:14:19;1.85;65.38
63202;DHT22;49296;48.188;11.566;2023-03-01T08:16:48;1.90;65.20
63202;DHT22;49296;48.188;11.566;2023-03-01T08:19:15;2.00;65.18
63202;DHT22;49296;48.188;11.566;2023-03-01T08:21:42;1.96;65.24
63202;DHT22;49296;48.188;11.566;2023-03-01T08:24:10;2.09;64.68
63202;DHT22;49296;48.188;11.566;2023-03-01T08:26:37;2.07;64.54
63202;DHT22;49296;48.188;11.566;2023-03-01T08:29:03;2.00;64.54
63202;DHT22;49296;48.188;11.566;2023-03-01T08:31:32;1.94;65.23
63202;DHT22;49296;48.188;11.566;2023-03-01T08:34:02;2.07;64.41
63202;DHT22;49296;48.188;11.566;2023-03-01T08:36:31;1.97;64.88
63202;DHT22;49296;48.188;11.566;2023-03-01T08:38:59;1.92;64.70
63202;DHT22;49296;48.188;11.566;2023-03-01T08:41:27;1.99;64.90
63202;DHT22;49296;48.188;11.566;2023-03-01T08:43:54;1.96;64.90
63202;DHT22;49296;48.188;11.566;2023-03-01T08:46:24;2.11;64.83
63202;DHT22;49296;48.188;11.566;2023-03-01T08:48:51;2.28;64.00
63202;DHT22;49296;48.188;11.566;2023-03-01T08:51:18;2.38;64.15
63202;DHT22;49296;48.188;11.566;2023-03-01T08:53:46;2.62;63.63
63202;DHT22;49296;48.188;11.566;2023-03-01T08:56:13;2.49;63.19
63202;DHT22;49296;48.188;11.566;2023-03-01T08:58:43;2.63;63.30
63202;DHT22;49296;48.188;11.566;2023-03-01T09:01:13;2.87;62.77
63202;DHT22;49296;48.188;11.566;2023-03-01T09:03:40;2.80;63.04
63202;DHT22;49296;48.188;11.566;2023-03-01T09:06:07;2.75;63.50
63202;DHT22;49296;48.188;11.566;2023-03-01T09:08:34;2.69;64.71
63202;DHT22;49296;48.188;11.566;2023-03-01T09:11:02;2.80;63.40
63202;DHT22;49296;48.188;11.566;2023-03-01T09:13:29;2.73;63.98
63202;DHT22;49296;48.188;11.566;2023-03-01T09:15:58;2.93;63.87
63202;DHT22;49296;48.188;11.566;2023-03-01T09:18:25;3.21;62.83
63202;DHT22;49296;48.188;11.566;2023-03-01T09:20:52;2.94;63.23
63202;DHT22;49296;48.188;11.566;2023-03-01T09:23:20;2.80;63.60
63202;DHT22;49296;48.188;11.566;2023-03-01T09:25:47;3.10;63.46
63202;DHT22;49296;48.188;11.566;2023-03-01T09:28:13;2.83;63.57
63202;DHT22;49296;48.188;11.566;2023-03-01T09:30:40;2.84;64.09
63202;DHT22;49296;48.188;11.566;2023-03-01T09:33:08;2.91;63.67
63202;DHT22;49296;48.188;11.566;2023-03-01T09:35:39;3.08;63.58
63202;DHT22;49296;48.188;11.566;2023-03-01T09:38:11;3.24;63.09
63202;DHT22;49296;48.188;11.566;2023-03-01T09:40:42;3.24;63.13
63202;DHT22;49296;48.188;11.566;2023-03-01T09:43:18;3.01;63.56
63202;DHT22;49296;48.188;11.566;2023-03-01T09:45:49;3.08;63.82
63202;DHT22;49296;48.188;11.566;2023-03-01T09:48:20;3.21;63.77
63202;DHT22;49296;48.188;11.566;2023-03-01T09:50:49;3.38;63.69
63202;DHT22;49296;48.188;11.566;2023-03-01T09:53:17;3.53;62.36
63202;DHT22;49296;48.188;11.566;2023-03-01T09:55:46;3.34;63.48
63202;DHT22;49296;48.188;11.566;2023-03-01T09:58:31;3.35;62.83
63202;DHT22;49296;48.188;11.566;2023-03-01T10:01:10;3.53;62.60
63202;DHT22;49296;48.188;11.566;2023-03-01T10:03:44;3.39;63.09
63202;DHT22;49296;48.188;11.566;2023-03-01T10:06:19;3.15;62.90
63202;DHT22;49296;48.188;11.566;2023-03-01T10:08:53;3.25;62.88
63202;DHT22;49296;48.188;11.566;2023-03-01T10:11:23;3.35;62.69
63202;DHT22;49296;48.188;11.566;2023-03-01T10:13:56;3.29;62.51
63202;DHT22;49296;48.188;11.566;2023-03-01T10:16:28;3.29;62.63
63202;DHT22;49296;48.188;11.566;2023-03-01T10:19:02;3.36;62.03
63202;DHT22;49296;48.188;11.566;2023-03-01T10:21:30;3.19;62.25
63202;DHT22;49296;48.188;11.566;2023-03-01T10:24:01;3.21;62.12
63202;DHT22;49296;48.188;11.566;2023-03-01T10:26:48;3.12;62.21
63202;DHT22;49296;48.188;11.566;2023-03-01T10:29:23;3.15;62.74
63202;DHT22;49296;48.188;11.566;2023-03-01T10:31:52;3.10;62.70
63202;DHT22;49296;48.188;11.566;2023-03-01T10:34:27;3.19;62.78
63202;DHT22;49296;48.188;11.566;2023-03-01T10:36:56;3.14;62.86
63202;DHT22;49296;48.188;11.566;2023-03-01T10:39:25;3.28;62.61
63202;DHT22;49296;48.188;11.566;2023-03-01T10:41:56;3.38;62.47
63202;DHT22;49296;48.188;11.566;2023-03-01T10:44:38;3.34;62.35
63202;DHT22;49296;48.188;11.566;2023-03-01T10:47:08;3.42;62.77
63202;DHT22;49296;48.188;11.566;2023-03-01T10:49:52;3.58;62.20
63202;DHT22;49296;48.188;11.566;2023-03-01T10:52:21;3.60;62.59
63202;DHT22;49296;48.188;11.566;2023-03-01T10:54:52;3.58;62.17
63202;DHT22;49296;48.188;11.566;2023-03-01T10:57:33;3.60;62.42
63202;DHT22;49296;48.188;11.566;2023-03-01T11:00:17;3.84;63.32
63202;DHT22;49296;48.188;11.566;2023-03-01T11:02:48;3.66;62.13
63202;DHT22;49296;48.188;11.566;2023-03-01T11:05:22;3.81;62.30
63202;DHT22;49296;48.188;11.566;2023-03-01T11:07:51;3.73;61.79
63202;DHT22;49296;48.188;11.566;2023-03-01T11:10:28;3.88;61.87
63202;DHT22;49296;48.188;11.566;2023-03-01T11:13:06;3.94;61.90
63202;DHT22;49296;48.188;11.566;2023-03-01T11:15:34;3.88;61.86
63202;DHT22;49296;48.188;11.566;2023-03-01T11:18:02;3.94;62.12
63202;DHT22;49296;48.188;11.566;2023-03-01T11:20:32;4.04;62.07
63202;DHT22;49296;48.188;11.566;2023-03-01T11:23:04;4.24;61.70
63202;DHT22;49296;48.188;11.566;2023-03-01T11:25:35;4.42;61.52
63202;DHT22;49296;48.188;11.566;2023-03-01T11:28:04;4.54;61.22
63202;DHT22;49296;48.188;11.566;2023-03-01T11:30:35;4.49;61.06
63202;DHT22;49296;48.188;11.566;2023-03-01T11:33:11;4.50;60.79
63202;DHT22;49296;48.188;11.566;2023-03-01T11:35:46;4.54;61.19
63202;DHT22;49296;48.188;11.566;2023-03-01T11:38:22;4.66;61.04
63202;DHT22;49296;48.188;11.566;2023-03-01T11:40:53;4.89;60.79
63202;DHT22;49296;48.188;11.566;2023-03-01T11:43:28;4.64;60.01
63202;DHT22;49296;48.188;11.566;2023-03-01T11:49:20;4.69;61.26
63202;DHT22;49296;48.188;11.566;2023-03-01T11:51:58;4.94;61.41
63202;DHT22;49296;48.188;11.566;2023-03-01T11:54:40;5.21;60.73
63202;DHT22;49296;48.188;11.566;2023-03-01T11:57:15;5.11;60.35
63202;DHT22;49296;48.188;11.566;2023-03-01T12:00:05;5.19;60.03
63202;DHT22;49296;48.188;11.566;2023-03-01T12:02:57;5.22;59.86
63202;DHT22;49296;48.188;11.566;2023-03-01T12:05:59;5.11;59.96
63202;DHT22;49296;48.188;11.566;2023-03-01T12:08:34;5.29;59.64
63202;DHT22;49296;48.188;11.566;2023-03-01T12:11:10;5.19;59.78
63202;DHT22;49296;48.188;11.566;2023-03-01T12:13:51;5.11;59.85
63202;DHT22;49296;48.188;11.566;2023-03-01T12:16:32;5.18;59.57
63202;DHT22;49296;48.188;11.566;2023-03-01T12:19:19;5.22;60.09
63202;DHT22;49296;48.188;11.566;2023-03-01T12:22:09;5.25;60.02
63202;DHT22;49296;48.188;11.566;2023-03-01T12:25:04;5.35;60.89
63202;DHT22;49296;48.188;11.566;2023-03-01T12:28:02;5.56;59.19
63202;DHT22;49296;48.188;11.566;2023-03-01T12:30:38;5.54;60.48
63202;DHT22;49296;48.188;11.566;2023-03-01T12:33:17;5.81;59.61
63202;DHT22;49296;48.188;11.566;2023-03-01T12:38:49;6.12;58.67
63202;DHT22;49296;48.188;11.566;2023-03-01T12:41:31;6.01;58.43
63202;DHT22;49296;48.188;11.566;2023-03-01T12:44:06;6.12;58.23
63202;DHT22;49296;48.188;11.566;2023-03-01T12:46:47;6.16;58.35
63202;DHT22;49296;48.188;11.566;2023-03-01T12:49:23;6.12;58.50
63202;DHT22;49296;48.188;11.566;2023-03-01T12:51:56;6.02;58.66
63202;DHT22;49296;48.188;11.566;2023-03-01T12:54:29;6.13;58.55
63202;DHT22;49296;48.188;11.566;2023-03-01T12:57:02;6.36;58.47
63202;DHT22;49296;48.188;11.566;2023-03-01T12:59:36;6.41;57.98
63202;DHT22;49296;48.188;11.566;2023-03-01T13:02:09;6.32;58.02
63202;DHT22;49296;48.188;11.566;2023-03-01T13:05:01;6.40;58.23
63202;DHT22;49296;48.188;11.566;2023-03-01T13:07:37;6.41;58.08
63202;DHT22;49296;48.188;11.566;2023-03-01T13:10:24;6.58;58.60
63202;DHT22;49296;48.188;11.566;2023-03-01T13:13:12;6.74;58.29
63202;DHT22;49296;48.188;11.566;2023-03-01T13:15:40;6.89;56.98
63202;DHT22;49296;48.188;11.566;2023-03-01T13:18:27;6.98;57.22
63202;DHT22;49296;48.188;11.566;2023-03-01T13:20:55;7.13;56.97
63202;DHT22;49296;48.188;11.566;2023-03-01T13:23:29;7.24;56.26
63202;DHT22;49296;48.188;11.566;2023-03-01T13:26:09;7.23;57.01
63202;DHT22;49296;48.188;11.566;2023-03-01T13:28:54;7.54;56.34
63202;DHT22;49296;48.188;11.566;2023-03-01T13:34:54;7.33;56.90
63202;DHT22;49296;48.188;11.566;2023-03-01T13:37:26;7.33;56.69
63202;DHT22;49296;48.188;11.566;2023-03-01T13:39:56;7.71;56.12
63202;DHT22;49296;48.188;11.566;2023-03-01T13:42:48;7.81;56.37
63202;DHT22;49296;48.188;11.566;2023-03-01T13:45:35;8.07;54.88
63202;DHT22;49296;48.188;11.566;2023-03-01T13:48:09;8.13;54.65
63202;DHT22;49296;48.188;11.566;2023-03-01T13:50:43;8.13;54.21
63202;DHT22;49296;48.188;11.566;2023-03-01T13:53:15;8.00;54.69
63202;DHT22;49296;48.188;11.566;2023-03-01T13:55:45;8.07;54.35
63202;DHT22;49296;48.188;11.566;2023-03-01T13:58:21;8.09;54.67
63202;DHT22;49296;48.188;11.566;2023-03-01T14:00:55;8.27;54.21
63202;DHT22;49296;48.188;11.566;2023-03-01T14:03:22;8.45;54.22
63202;DHT22;49296;48.188;11.566;2023-03-01T14:06:02;8.48;54.83
63202;DHT22;49296;48.188;11.566;2023-03-01T14:08:32;8.45;54.35
63202;DHT22;49296;48.188;11.566;2023-03-01T14:11:20;8.12;54.59
63202;DHT22;49296;48.188;11.566;2023-03-01T14:14:07;8.05;55.39
63202;DHT22;49296;48.188;11.566;2023-03-01T14:16:46;7.72;56.38
63202;DHT22;49296;48.188;11.566;2023-03-01T14:19:17;7.81;56.17
63202;DHT22;49296;48.188;11.566;2023-03-01T14:21:46;7.92;56.03
63202;DHT22;49296;48.188;11.566;2023-03-01T14:24:21;7.97;55.81
63202;DHT22;49296;48.188;11.566;2023-03-01T14:26:49;7.60;56.59
63202;DHT22;49296;48.188;11.566;2023-03-01T14:29:36;7.67;56.82
63202;DHT22;49296;48.188;11.566;2023-03-01T14:32:16;7.62;56.33
63202;DHT22;49296;48.188;11.566;2023-03-01T14:34:44;7.68;56.34
63202;DHT22;49296;48.188;11.566;2023-03-01T14:37:18;7.79;55.90
63202;DHT22;49296;48.188;11.566;2023-03-01T14:39:45;7.78;56.30
63202;DHT22;49296;48.188;11.566;2023-03-01T14:42:13;7.79;56.21
63202;DHT22;49296;48.188;11.566;2023-03-01T14:44:42;7.89;56.11
63202;DHT22;49296;48.188;11.566;2023-03-01T14:47:12;7.99;56.01
63202;DHT22;49296;48.188;11.566;2023-03-01T14:49:41;8.06;55.89
63202;DHT22;49296;48.188;11.566;2023-03-01T14:52:18;8.16;55.92
63202;DHT22;49296;48.188;11.566;2023-03-01T14:54:47;8.24;55.83
63202;DHT22;49296;48.188;11.566;2023-03-01T14:57:16;8.40;55.44
63202;DHT22;49296;48.188;11.566;2023-03-01T14:59:43;8.20;55.91
63202;DHT22;49296;48.188;11.566;2023-03-01T15:02:15;8.16;55.90
63202;DHT22;49296;48.188;11.566;2023-03-01T15:04:46;8.19;56.19
63202;DHT22;49296;48.188;11.566;2023-03-01T15:07:14;8.20;56.21
63202;DHT22;49296;48.188;11.566;2023-03-01T15:09:42;8.22;55.99
63202;DHT22;49296;48.188;11.566;2023-03-01T15:12:34;8.41;55.97
63202;DHT22;49296;48.188;11.566;2023-03-01T15:15:02;8.65;55.45
63202;DHT22;49296;48.188;11.566;2023-03-01T15:17:51;9.19;54.55
63202;DHT22;49296;48.188;11.566;2023-03-01T15:20:23;9.37;54.01
63202;DHT22;49296;48.188;11.566;2023-03-01T15:22:53;9.35;54.04
63202;DHT22;49296;48.188;11.566;2023-03-01T15:25:21;9.14;54.42
63202;DHT22;49296;48.188;11.566;2023-03-01T15:27:52;9.03;54.62
63202;DHT22;49296;48.188;11.566;2023-03-01T15:30:21;8.73;55.25
63202;DHT22;49296;48.188;11.566;2023-03-01T15:33:16;8.73;55.78
63202;DHT22;49296;48.188;11.566;2023-03-01T15:35:46;8.27;56.50
63202;DHT22;49296;48.188;11.566;2023-03-01T15:38:32;8.22;56.93
63202;DHT22;49296;48.188;11.566;2023-03-01T15:41:00;8.26;56.75
63202;DHT22;49296;48.188;11.566;2023-03-01T15:43:40;8.00;57.55
63202;DHT22;49296;48.188;11.566;2023-03-01T15:46:16;8.24;57.34
63202;DHT22;49296;48.188;11.566;2023-03-01T15:48:46;8.23;57.15
63202;DHT22;49296;48.188;11.566;2023-03-01T15:51:15;8.05;57.92
63202;DHT22;49296;48.188;11.566;2023-03-01T15:53:44;8.03;58.14
63202;DHT22;49296;48.188;11.566;2023-03-01T15:56:12;7.81;58.42
63202;DHT22;49296;48.188;11.566;2023-03-01T15:58:39;7.86;58.65
63202;DHT22;49296;48.188;11.566;2023-03-01T16:01:10;7.70;58.94